Flight Track Log - Related Links

Times and Time Zones

All times are in EDT time to prevent confusion due to time zone crossing. See the N43HP flight status page for this flight to view local times or setup timezone preferences in your user account.

Time Position Orientation Groundspeed Altitude Reporting Facility
EDT Latitude Longitude Course Direction KTS MPH feet Rate Location/Type
Tue 06:37:25 PM 25.9125 -80.2692 352° North 104 120 300  Level Miami Center
Tue 06:38:26 PM 25.9414 -80.2739 352° North 141 162 1,200 889 Climbing Miami Center
Tue 06:39:13 PM 25.9647 -80.2886 330° Northwest 136 157 1,900 787 Climbing Miami Center
Tue 06:39:27 PM 25.9714 -80.2969 312° West 127 146 2,000 774 Climbing Miami Center
Tue 06:40:15 PM 25.9811 -80.3236 292° West 135 155 2,700 885 Climbing Miami Center
Tue 06:40:28 PM 25.9856 -80.3375 290° West 132 152 2,900 689 Climbing Miami Center
Tue 06:41:16 PM 25.9983 -80.3592 303° West 135 155 3,400 716 Climbing Miami Center
Tue 06:41:35 PM 26.0108 -80.3694 324° Northwest 134 154 3,700 871 Climbing Miami Center
Tue 06:42:18 PM 26.0250 -80.3839 318° Northwest 128 147 4,300 982 Climbing Miami Center
Tue 06:42:30 PM 26.0322 -80.3944 307° West 121 139 4,600 1,082 Climbing Miami Center
Tue 06:43:19 PM 26.0553 -80.4122 325° Northwest 124 143 5,400 865 Climbing Miami Center
Tue 06:44:21 PM 26.0883 -80.4178 351° North 122 140 6,200 740 Climbing Miami Center
Tue 06:44:32 PM 26.0956 -80.4203 343° North 120 138 6,300 787 Climbing Miami Center
Tue 06:45:22 PM 26.1206 -80.4242 352° North 119 137 7,000 689 Climbing Miami Center
Tue 06:45:33 PM 26.1286 -80.4275 340° North 119 137 7,000 581 Level Miami Center
Tue 06:46:24 PM 26.1542 -80.4339 347° North 122 140 7,600 696 Climbing Miami Center
Tue 06:47:25 PM 26.1875 -80.4464 341° North 125 144 8,300 488 Climbing Miami Center
Tue 06:48:27 PM 26.2233 -80.4594 342° North 130 150 8,600 146 Climbing Miami Center
Tue 06:49:28 PM 26.2725 -80.4764 343° North 167 192 8,600  Level Miami Center
Tue 06:50:30 PM 26.3231 -80.4947 342° North 177 204 8,600  Level Miami Center
Tue 06:51:31 PM 26.3706 -80.5136 340° North 179 206 8,600  Level Miami Center
Tue 06:52:33 PM 26.4178 -80.5314 341° North 179 206 8,600  Level Miami Center
Tue 06:53:34 PM 26.4686 -80.5506 341° North 178 205 8,600 -49 Level Miami Center
Tue 06:54:36 PM 26.5164 -80.5692 341° North 179 206 8,500 -49 Descending Miami Center
Tue 06:55:37 PM 26.5633 -80.5869 341° North 179 206 8,500  Level Miami Center
Tue 06:56:39 PM 26.6144 -80.6061 341° North 179 206 8,500  Level Miami Center
Tue 06:57:40 PM 26.6622 -80.6236 342° North 181 208 8,500  Level Miami Center
Tue 06:58:42 PM 26.7089 -80.6425 340° North 180 207 8,500  Level Miami Center
Tue 06:59:43 PM 26.7597 -80.6622 341° North 178 205 8,500  Level Miami Center
Tue 07:00:45 PM 26.8078 -80.6806 341° North 181 208 8,500  Level Miami Center
Tue 07:01:46 PM 26.8578 -80.6989 342° North 180 207 8,500  Level Miami Center
Tue 07:02:48 PM 26.9044 -80.7167 341° North 181 208 8,500 -49 Level Miami Center
Tue 07:03:49 PM 26.9544 -80.7353 342° North 182 209 8,400  Descending Miami Center
Tue 07:04:51 PM 27.0039 -80.7536 342° North 181 208 8,500 49 Climbing Miami Center
Tue 07:05:52 PM 27.0539 -80.7708 343° North 181 208 8,500 49 Level Miami Center
Tue 07:06:54 PM 27.0978 -80.7869 342° North 180 207 8,600 49 Climbing Miami Center
Tue 07:07:55 PM 27.1500 -80.8067 341° North 180 207 8,600  Level Miami Center
Tue 07:08:57 PM 27.2000 -80.8267 340° North 181 208 8,600  Level Miami Center
Tue 07:09:58 PM 27.2461 -80.8436 342° North 181 208 8,600  Level Miami Center
Tue 07:11:00 PM 27.2967 -80.8625 342° North 181 208 8,600  Level Miami Center
Tue 07:12:01 PM 27.3456 -80.8811 341° North 181 208 8,600 -49 Level Miami Center
Tue 07:13:03 PM 27.3961 -80.9000 342° North 181 208 8,500 -49 Descending Miami Center
Tue 07:14:04 PM 27.4428 -80.9167 342° North 181 208 8,500  Level Miami Center
Tue 07:15:06 PM 27.4933 -80.9350 342° North 181 208 8,500  Level Miami Center
Tue 07:16:07 PM 27.5439 -80.9531 342° North 182 209 8,500  Level Miami Center
Tue 07:17:09 PM 27.5903 -80.9708 341° North 182 209 8,500  Level Miami Center
Tue 07:18:10 PM 27.6397 -80.9883 343° North 181 208 8,500  Level Miami Center
Tue 07:19:12 PM 27.6897 -81.0075 341° North 181 208 8,500 49 Level Miami Center
Tue 07:20:13 PM 27.7356 -81.0239 342° North 181 208 8,600 49 Climbing Miami Center
Tue 07:21:15 PM 27.7858 -81.0425 342° North 180 207 8,600 -49 Level Miami Center
Tue 07:22:16 PM 27.8358 -81.0606 342° North 181 208 8,500 -98 Descending Miami Center
Tue 07:23:18 PM 27.8844 -81.0789 342° North 180 207 8,400  Descending Miami Center
Tue 07:24:19 PM 27.9300 -81.0950 343° North 179 206 8,500  Climbing Miami Center
Tue 07:25:21 PM 27.9786 -81.1103 344° North 183 211 8,400 -145 Descending Miami Center
Tue 07:26:23 PM 28.0311 -81.1150 355° North 183 211 8,200 -390 Descending Miami Center
Tue 07:27:24 PM 28.0861 -81.1092 North 196 226 7,600 -689 Descending Miami Center
Tue 07:28:25 PM 28.1414 -81.1092 360° North 198 228 6,800 -927 Descending Miami Center
Tue 07:29:27 PM 28.1978 -81.1100 359° North 199 229 5,700 -927 Descending Miami Center
Tue 07:30:28 PM 28.2558 -81.1122 358° North 204 235 4,900 -927 Descending Miami Center
Tue 07:31:30 PM 28.3214 -81.1175 356° North 202 232 3,800 -927 Descending Miami Center
Tue 07:32:31 PM 28.3778 -81.1247 354° North 203 234 3,000 -742 Descending Miami Center
Tue 07:33:07 PM 28.4167 -81.1333 349° North 199 229 2,600 -714 Descending Orlando TRACON
Tue 07:33:55 PM 28.4500 -81.1333 360° North 193 222 2,000 -611 Descending Orlando TRACON
Tue 07:34:55 PM 28.5167 -81.1333 360° North 185 213 1,500 -250 Descending Orlando TRACON
Tue 07:35:55 PM 28.5500 -81.1667 319° Northwest 151 174 1,500 -48 Level Orlando TRACON
Tue 07:37:01 PM 28.5667 -81.2000 300° West 133 153 1,400 -50 Descending Orlando TRACON
Tue 07:37:55 PM 28.5833 -81.2333 300° West 110 127 1,400 -105 Level Orlando TRACON
Tue 07:38:55 PM 28.5667 -81.2667 240° Southwest 116 133 1,200 -450 Descending Orlando TRACON
Tue 07:39:55 PM 28.5500 -81.3000 240° Southwest 124 143 500 -700 Descending Orlando TRACON

Login

Don't have an account? Register now (free) for customized features, flight alerts, and more!